sensor_id;sensor_type;location;lat;lon;timestamp;temperature;humidity
44247;DHT22;29922;0.000;0.000;2022-08-19T10:11:15;16.90;75.60
44247;DHT22;29922;0.000;0.000;2022-08-19T10:16:36;16.80;75.70
44247;DHT22;29922;0.000;0.000;2022-08-19T10:21:58;17.20;74.10
44247;DHT22;29922;0.000;0.000;2022-08-19T10:27:20;17.50;72.30
44247;DHT22;29922;0.000;0.000;2022-08-19T10:32:40;17.70;70.90
44247;DHT22;29922;0.000;0.000;2022-08-19T10:43:23;18.60;69.20
44247;DHT22;29922;0.000;0.000;2022-08-19T10:48:45;18.40;69.20
44247;DHT22;29922;0.000;0.000;2022-08-19T10:54:06;18.40;69.50
44247;DHT22;29922;0.000;0.000;2022-08-19T10:59:29;18.40;69.40
44247;DHT22;29922;0.000;0.000;2022-08-19T11:04:49;18.40;69.30
44247;DHT22;29922;0.000;0.000;2022-08-19T11:10:12;18.40;69.20
44247;DHT22;29922;0.000;0.000;2022-08-19T11:15:36;18.40;69.20
44247;DHT22;29922;0.000;0.000;2022-08-19T11:21:06;18.40;69.20
44247;DHT22;29922;0.000;0.000;2022-08-19T11:26:29;18.40;69.10
44247;DHT22;29922;0.000;0.000;2022-08-19T11:31:52;18.40;69.00
44247;DHT22;29922;0.000;0.000;2022-08-19T11:37:14;18.40;69.10
44247;DHT22;29922;0.000;0.000;2022-08-19T11:42:34;18.40;69.10
44247;DHT22;29922;0.000;0.000;2022-08-19T11:48:14;18.40;68.90
44247;DHT22;29922;0.000;0.000;2022-08-19T11:53:35;18.40;69.10
44247;DHT22;29922;0.000;0.000;2022-08-19T11:58:57;18.40;69.20
44247;DHT22;29922;0.000;0.000;2022-08-19T12:04:19;18.40;68.90
44247;DHT22;29922;0.000;0.000;2022-08-19T12:09:39;18.40;68.90
44247;DHT22;29922;0.000;0.000;2022-08-19T12:15:00;18.40;69.00
44247;DHT22;29922;0.000;0.000;2022-08-19T12:20:23;18.40;68.80
44247;DHT22;29922;0.000;0.000;2022-08-19T12:25:47;18.40;68.70
44247;DHT22;29922;0.000;0.000;2022-08-19T12:31:11;18.40;68.80
44247;DHT22;29922;0.000;0.000;2022-08-19T12:36:33;18.40;68.90
44247;DHT22;29922;0.000;0.000;2022-08-19T12:41:54;18.40;68.90
44247;DHT22;29922;0.000;0.000;2022-08-19T12:47:14;18.40;68.90
44247;DHT22;29922;0.000;0.000;2022-08-19T12:52:37;18.40;68.80
44247;DHT22;29922;0.000;0.000;2022-08-19T12:58:01;18.40;68.90
44247;DHT22;29922;0.000;0.000;2022-08-19T13:03:21;18.40;69.00
44247;DHT22;29922;0.000;0.000;2022-08-19T13:08:49;18.40;68.90
44247;DHT22;29922;0.000;0.000;2022-08-19T13:14:10;18.40;68.30
44247;DHT22;29922;0.000;0.000;2022-08-19T13:19:31;18.50;68.20
44247;DHT22;29922;0.000;0.000;2022-08-19T13:24:53;18.50;68.00
44247;DHT22;29922;0.000;0.000;2022-08-19T13:30:15;18.50;68.40
44247;DHT22;29922;0.000;0.000;2022-08-19T13:35:58;18.50;68.10
44247;DHT22;29922;0.000;0.000;2022-08-19T13:41:20;18.50;68.10
44247;DHT22;29922;0.000;0.000;2022-08-19T13:46:41;18.50;68.20
44247;DHT22;29922;0.000;0.000;2022-08-19T13:52:04;18.50;68.20
44247;DHT22;29922;0.000;0.000;2022-08-19T13:57:27;18.50;68.50
44247;DHT22;29922;0.000;0.000;2022-08-19T14:02:51;18.50;68.60
44247;DHT22;29922;0.000;0.000;2022-08-19T14:08:13;18.50;68.70
44247;DHT22;29922;0.000;0.000;2022-08-19T14:13:35;18.50;68.80
44247;DHT22;29922;0.000;0.000;2022-08-19T14:18:56;18.50;68.70
44247;DHT22;29922;0.000;0.000;2022-08-19T14:24:16;18.50;68.50
44247;DHT22;29922;0.000;0.000;2022-08-19T14:29:38;18.50;68.50
44247;DHT22;29922;0.000;0.000;2022-08-19T14:34:59;18.50;68.50
44247;DHT22;29922;0.000;0.000;2022-08-19T14:40:19;18.50;68.40
44247;DHT22;29922;0.000;0.000;2022-08-19T14:45:46;18.50;68.50
44247;DHT22;29922;0.000;0.000;2022-08-19T14:51:07;18.50;68.30
44247;DHT22;29922;0.000;0.000;2022-08-19T14:56:29;18.50;68.10
44247;DHT22;29922;0.000;0.000;2022-08-19T15:01:51;18.50;68.20
44247;DHT22;29922;0.000;0.000;2022-08-19T15:07:12;18.50;68.00
44247;DHT22;29922;0.000;0.000;2022-08-19T15:12:33;18.50;67.80
44247;DHT22;29922;0.000;0.000;2022-08-19T15:17:55;18.60;67.90
44247;DHT22;29922;0.000;0.000;2022-08-19T15:23:21;18.60;67.80
44247;DHT22;29922;0.000;0.000;2022-08-19T15:28:42;18.60;67.70
44247;DHT22;29922;0.000;0.000;2022-08-19T15:34:04;18.60;67.60
44247;DHT22;29922;0.000;0.000;2022-08-19T15:39:25;18.60;67.70
44247;DHT22;29922;0.000;0.000;2022-08-19T15:44:46;18.60;67.70
44247;DHT22;29922;0.000;0.000;2022-08-19T15:50:11;18.60;67.90
44247;DHT22;29922;0.000;0.000;2022-08-19T15:55:35;18.60;67.90
44247;DHT22;29922;0.000;0.000;2022-08-19T16:00:58;18.60;67.80
44247;DHT22;29922;0.000;0.000;2022-08-19T16:06:39;18.60;67.70
44247;DHT22;29922;0.000;0.000;2022-08-19T16:12:03;18.50;67.60
44247;DHT22;29922;0.000;0.000;2022-08-19T16:17:24;18.50;67.00
44247;DHT22;29922;0.000;0.000;2022-08-19T16:22:47;18.60;67.30
44247;DHT22;29922;0.000;0.000;2022-08-19T16:28:08;18.60;67.20
44247;DHT22;29922;0.000;0.000;2022-08-19T16:33:28;18.60;67.60
44247;DHT22;29922;0.000;0.000;2022-08-19T16:38:51;18.60;67.70
44247;DHT22;29922;0.000;0.000;2022-08-19T16:44:13;18.60;67.70
44247;DHT22;29922;0.000;0.000;2022-08-19T16:49:36;18.50;67.10
44247;DHT22;29922;0.000;0.000;2022-08-19T16:54:57;18.60;66.90
44247;DHT22;29922;0.000;0.000;2022-08-19T17:00:18;18.60;66.80
44247;DHT22;29922;0.000;0.000;2022-08-19T17:05:41;18.60;66.90
44247;DHT22;29922;0.000;0.000;2022-08-19T17:11:03;18.60;66.60
44247;DHT22;29922;0.000;0.000;2022-08-19T17:16:26;18.50;66.50
44247;DHT22;29922;0.000;0.000;2022-08-19T17:21:48;18.50;66.50
44247;DHT22;29922;0.000;0.000;2022-08-19T17:27:09;18.50;66.50
44247;DHT22;29922;0.000;0.000;2022-08-19T17:32:30;18.50;66.40
44247;DHT22;29922;0.000;0.000;2022-08-19T17:37:53;18.50;66.30
44247;DHT22;29922;0.000;0.000;2022-08-19T17:43:17;18.50;66.30
44247;DHT22;29922;0.000;0.000;2022-08-19T17:48:38;18.50;66.20
44247;DHT22;29922;0.000;0.000;2022-08-19T17:53:59;18.50;66.10
44247;DHT22;29922;0.000;0.000;2022-08-19T17:59:21;18.50;66.10
44247;DHT22;29922;0.000;0.000;2022-08-19T18:04:41;18.50;66.00
44247;DHT22;29922;0.000;0.000;2022-08-19T18:10:02;18.50;66.00
44247;DHT22;29922;0.000;0.000;2022-08-19T18:15:24;18.50;66.00
44247;DHT22;29922;0.000;0.000;2022-08-19T18:20:45;18.50;65.90
44247;DHT22;29922;0.000;0.000;2022-08-19T18:26:06;18.50;65.80
44247;DHT22;29922;0.000;0.000;2022-08-19T18:31:28;18.50;65.90
44247;DHT22;29922;0.000;0.000;2022-08-19T18:36:49;18.50;65.80
44247;DHT22;29922;0.000;0.000;2022-08-19T18:42:13;18.50;65.70
44247;DHT22;29922;0.000;0.000;2022-08-19T18:47:53;18.50;65.70
44247;DHT22;29922;0.000;0.000;2022-08-19T18:53:33;18.60;65.60
44247;DHT22;29922;0.000;0.000;2022-08-19T18:58:56;18.60;65.60
44247;DHT22;29922;0.000;0.000;2022-08-19T19:04:21;18.50;65.50
44247;DHT22;29922;0.000;0.000;2022-08-19T19:09:43;18.60;65.50
44247;DHT22;29922;0.000;0.000;2022-08-19T19:15:05;18.60;65.40
44247;DHT22;29922;0.000;0.000;2022-08-19T19:20:27;18.60;66.20
44247;DHT22;29922;0.000;0.000;2022-08-19T19:25:49;18.60;65.40
44247;DHT22;29922;0.000;0.000;2022-08-19T19:31:12;18.60;65.40
44247;DHT22;29922;0.000;0.000;2022-08-19T19:36:35;18.60;65.30
44247;DHT22;29922;0.000;0.000;2022-08-19T19:41:56;18.60;65.30
44247;DHT22;29922;0.000;0.000;2022-08-19T19:47:16;18.60;65.20
44247;DHT22;29922;0.000;0.000;2022-08-19T19:52:40;18.60;65.20
44247;DHT22;29922;0.000;0.000;2022-08-19T19:58:03;18.50;65.20
44247;DHT22;29922;0.000;0.000;2022-08-19T20:03:25;18.60;65.20
44247;DHT22;29922;0.000;0.000;2022-08-19T20:08:47;18.60;65.10
44247;DHT22;29922;0.000;0.000;2022-08-19T20:14:27;18.60;65.20
44247;DHT22;29922;0.000;0.000;2022-08-19T20:19:49;18.60;65.10
44247;DHT22;29922;0.000;0.000;2022-08-19T20:25:13;18.50;65.10
44247;DHT22;29922;0.000;0.000;2022-08-19T20:30:34;18.60;65.10
44247;DHT22;29922;0.000;0.000;2022-08-19T20:35:55;18.60;65.10
44247;DHT22;29922;0.000;0.000;2022-08-19T20:41:17;18.50;65.00
44247;DHT22;29922;0.000;0.000;2022-08-19T20:46:37;18.50;65.00
44247;DHT22;29922;0.000;0.000;2022-08-19T20:51:58;18.50;65.00
44247;DHT22;29922;0.000;0.000;2022-08-19T20:57:20;18.50;65.00
44247;DHT22;29922;0.000;0.000;2022-08-19T21:02:40;18.50;65.00
44247;DHT22;29922;0.000;0.000;2022-08-19T21:08:02;18.50;65.00
44247;DHT22;29922;0.000;0.000;2022-08-19T21:13:24;18.50;65.00
44247;DHT22;29922;0.000;0.000;2022-08-19T21:18:45;18.50;64.90
44247;DHT22;29922;0.000;0.000;2022-08-19T21:24:06;18.50;64.80
44247;DHT22;29922;0.000;0.000;2022-08-19T21:29:28;18.60;64.90
44247;DHT22;29922;0.000;0.000;2022-08-19T21:34:50;18.50;64.70
44247;DHT22;29922;0.000;0.000;2022-08-19T21:40:11;18.50;64.80
44247;DHT22;29922;0.000;0.000;2022-08-19T21:45:34;18.50;64.80
44247;DHT22;29922;0.000;0.000;2022-08-19T21:50:54;18.50;64.70
44247;DHT22;29922;0.000;0.000;2022-08-19T21:56:15;18.60;64.70
44247;DHT22;29922;0.000;0.000;2022-08-19T22:01:37;18.60;64.70
44247;DHT22;29922;0.000;0.000;2022-08-19T22:06:57;18.60;64.60
44247;DHT22;29922;0.000;0.000;2022-08-19T22:12:20;18.60;64.50
44247;DHT22;29922;0.000;0.000;2022-08-19T22:17:44;18.50;64.60
44247;DHT22;29922;0.000;0.000;2022-08-19T22:23:05;18.50;64.60
44247;DHT22;29922;0.000;0.000;2022-08-19T22:28:26;18.50;64.60
44247;DHT22;29922;0.000;0.000;2022-08-19T22:33:48;18.50;64.60
44247;DHT22;29922;0.000;0.000;2022-08-19T22:39:10;18.50;64.60
44247;DHT22;29922;0.000;0.000;2022-08-19T22:44:31;18.50;64.60
44247;DHT22;29922;0.000;0.000;2022-08-19T22:49:52;18.50;64.50
44247;DHT22;29922;0.000;0.000;2022-08-19T22:55:13;18.50;64.60
44247;DHT22;29922;0.000;0.000;2022-08-19T23:00:34;18.50;64.60
44247;DHT22;29922;0.000;0.000;2022-08-19T23:05:56;18.50;64.50
44247;DHT22;29922;0.000;0.000;2022-08-19T23:11:17;18.50;64.60
44247;DHT22;29922;0.000;0.000;2022-08-19T23:16:38;18.50;64.50
44247;DHT22;29922;0.000;0.000;2022-08-19T23:22:00;18.50;64.50
44247;DHT22;29922;0.000;0.000;2022-08-19T23:27:21;18.50;64.50
44247;DHT22;29922;0.000;0.000;2022-08-19T23:33:01;18.50;64.40
44247;DHT22;29922;0.000;0.000;2022-08-19T23:38:28;18.50;64.40
44247;DHT22;29922;0.000;0.000;2022-08-19T23:43:50;18.50;64.40
44247;DHT22;29922;0.000;0.000;2022-08-19T23:49:10;18.50;64.40
44247;DHT22;29922;0.000;0.000;2022-08-19T23:54:34;18.50;64.40
44247;DHT22;29922;0.000;0.000;2022-08-19T23:59:55;18.50;64.30
